createdAt,value
2022-10-08T00:00:54.441Z,92.10
2022-10-08T00:03:23.487Z,92.10
2022-10-08T00:06:01.311Z,92.10
2022-10-08T00:08:30.308Z,92.10
2022-10-08T00:11:00.477Z,92.10
2022-10-08T00:13:29.182Z,92.10
2022-10-08T00:15:56.969Z,92.10
2022-10-08T00:18:23.887Z,92.10
2022-10-08T00:20:50.613Z,92.10
2022-10-08T00:23:17.296Z,92.10
2022-10-08T00:25:45.205Z,92.10
2022-10-08T00:28:13.904Z,92.10
2022-10-08T00:30:41.459Z,92.10
2022-10-08T00:33:09.927Z,92.10
2022-10-08T00:35:40.723Z,92.10
2022-10-08T00:38:07.809Z,92.10
2022-10-08T00:40:44.950Z,92.10
2022-10-08T00:43:16.615Z,92.10
2022-10-08T00:45:46.066Z,92.00
2022-10-08T00:48:25.563Z,92.00
2022-10-08T00:50:52.688Z,92.00
2022-10-08T00:53:21.275Z,92.00
2022-10-08T00:55:48.598Z,92.00
2022-10-08T00:58:23.020Z,92.00
2022-10-08T01:00:51.030Z,92.00
2022-10-08T01:03:17.974Z,92.00
2022-10-08T01:06:02.145Z,92.00
2022-10-08T01:08:41.684Z,91.90
2022-10-08T01:11:38.684Z,91.90
2022-10-08T01:14:39.355Z,91.90
2022-10-08T01:17:24.168Z,91.90
2022-10-08T01:20:17.375Z,91.90
2022-10-08T01:23:02.068Z,91.90
2022-10-08T01:25:49.299Z,91.90
2022-10-08T01:28:40.746Z,91.90
2022-10-08T01:31:36.378Z,91.90
2022-10-08T01:34:25.482Z,91.90
2022-10-08T01:36:54.768Z,91.90
2022-10-08T01:39:24.523Z,91.90
2022-10-08T01:41:58.557Z,91.80
2022-10-08T01:44:37.923Z,91.80
2022-10-08T01:47:09.058Z,91.80
2022-10-08T01:49:50.547Z,91.80
2022-10-08T01:52:33.461Z,91.80
2022-10-08T01:55:04.697Z,91.80
2022-10-08T01:57:33.635Z,91.80
2022-10-08T02:00:07.692Z,91.80
2022-10-08T02:02:34.541Z,91.80
2022-10-08T02:05:01.532Z,91.80
2022-10-08T02:07:35.320Z,91.80
2022-10-08T02:10:14.003Z,91.80
2022-10-08T02:12:41.812Z,91.80
2022-10-08T02:15:15.589Z,91.80
2022-10-08T02:18:07.003Z,91.80
2022-10-08T02:20:50.527Z,91.70
2022-10-08T02:23:31.099Z,91.70
2022-10-08T02:26:03.981Z,91.70
2022-10-08T02:28:56.372Z,91.70
2022-10-08T02:31:52.071Z,91.70
2022-10-08T02:34:32.051Z,91.70
2022-10-08T02:37:12.651Z,91.70
2022-10-08T02:39:43.564Z,91.70
2022-10-08T02:42:14.032Z,91.70
2022-10-08T02:44:53.451Z,91.70
2022-10-08T02:47:26.092Z,91.70
2022-10-08T02:50:08.885Z,91.80
2022-10-08T02:52:39.569Z,91.80
2022-10-08T02:55:23.601Z,91.80
2022-10-08T02:58:09.742Z,91.80
2022-10-08T03:00:42.486Z,91.80
2022-10-08T03:03:15.309Z,91.80
2022-10-08T03:05:42.778Z,91.80
2022-10-08T03:08:12.705Z,91.80
2022-10-08T03:10:41.572Z,91.80
2022-10-08T03:13:09.197Z,91.80
2022-10-08T03:15:38.024Z,91.80
2022-10-08T03:18:08.844Z,91.80
2022-10-08T03:20:42.662Z,91.80
2022-10-08T03:23:09.431Z,91.80
2022-10-08T03:25:36.094Z,91.80
2022-10-08T03:28:02.924Z,91.80
2022-10-08T03:30:29.699Z,91.70
2022-10-08T03:32:56.423Z,91.70
2022-10-08T03:35:23.186Z,91.70
2022-10-08T03:37:52.347Z,91.70
2022-10-08T03:40:19.329Z,91.70
2022-10-08T03:42:46.287Z,91.70
2022-10-08T03:45:13.398Z,91.70
2022-10-08T03:47:40.338Z,91.70
2022-10-08T03:50:07.432Z,91.70
2022-10-08T03:52:34.352Z,91.70
2022-10-08T03:55:01.064Z,91.70
2022-10-08T03:57:27.749Z,91.70
2022-10-08T03:59:54.474Z,91.70
2022-10-08T04:02:21.222Z,91.70
2022-10-08T04:04:48.447Z,91.70
2022-10-08T04:07:15.165Z,91.70
2022-10-08T04:09:41.908Z,91.70
2022-10-08T04:12:08.657Z,91.70
2022-10-08T04:14:35.388Z,91.70
2022-10-08T04:17:02.133Z,91.70
2022-10-08T04:19:28.892Z,91.80
2022-10-08T04:21:55.612Z,91.70
2022-10-08T04:24:22.397Z,91.80
2022-10-08T04:26:49.127Z,91.80
2022-10-08T04:29:16.283Z,91.80
2022-10-08T04:31:42.953Z,91.80
2022-10-08T04:34:12.669Z,91.80
2022-10-08T04:36:40.025Z,91.80
2022-10-08T04:39:06.849Z,91.80
2022-10-08T04:41:33.521Z,91.80
2022-10-08T04:44:03.626Z,91.80
2022-10-08T04:46:30.499Z,91.80
2022-10-08T04:48:57.656Z,91.80
2022-10-08T04:51:25.826Z,91.80
2022-10-08T04:53:53.443Z,91.80
2022-10-08T04:56:22.727Z,91.80
2022-10-08T04:58:49.984Z,91.80
2022-10-08T05:01:19.850Z,91.80
2022-10-08T05:03:49.354Z,91.80
2022-10-08T05:06:18.051Z,91.80
2022-10-08T05:08:45.950Z,91.80
2022-10-08T05:11:13.892Z,91.80
2022-10-08T05:13:41.339Z,91.80
2022-10-08T05:16:11.031Z,91.80
2022-10-08T05:18:39.291Z,91.80
2022-10-08T05:21:08.900Z,91.80
2022-10-08T05:23:36.071Z,91.80
2022-10-08T05:26:15.827Z,91.80
2022-10-08T05:28:43.805Z,91.80
2022-10-08T05:31:11.012Z,91.80
2022-10-08T05:33:38.117Z,91.80
2022-10-08T05:36:07.155Z,91.80
2022-10-08T05:38:35.407Z,91.80
2022-10-08T05:41:30.132Z,91.90
2022-10-08T05:43:58.633Z,91.90
2022-10-08T05:46:27.507Z,91.90
2022-10-08T05:48:58.889Z,91.90
2022-10-08T05:51:26.226Z,91.90
2022-10-08T05:53:54.305Z,91.90
2022-10-08T05:56:23.768Z,91.90
2022-10-08T05:58:51.176Z,91.90
2022-10-08T06:01:30.790Z,92.00
2022-10-08T06:04:03.086Z,92.00
2022-10-08T06:06:36.258Z,92.00
2022-10-08T06:09:03.548Z,92.00
2022-10-08T06:11:33.117Z,92.00
2022-10-08T06:14:01.193Z,92.00
2022-10-08T06:16:29.722Z,92.00
2022-10-08T06:18:56.866Z,92.00
2022-10-08T06:21:25.983Z,92.00
2022-10-08T06:23:54.643Z,92.00
2022-10-08T06:26:23.104Z,92.10
2022-10-08T06:28:50.224Z,92.10
2022-10-08T06:31:17.570Z,92.10
2022-10-08T06:33:44.575Z,92.10
2022-10-08T06:36:17.343Z,92.10
2022-10-08T06:38:48.895Z,92.00
2022-10-08T06:41:15.950Z,92.10
2022-10-08T06:43:42.679Z,92.10
2022-10-08T06:46:09.461Z,92.10
2022-10-08T06:48:36.210Z,92.10
2022-10-08T06:51:09.662Z,92.20
2022-10-08T06:53:36.424Z,92.20
2022-10-08T06:56:07.062Z,92.20
2022-10-08T06:58:38.020Z,92.20
2022-10-08T07:01:10.419Z,91.90
2022-10-08T07:03:37.745Z,91.90
2022-10-08T07:06:07.407Z,92.00
2022-10-08T07:08:36.056Z,92.00
2022-10-08T07:11:08.215Z,92.00
2022-10-08T07:13:35.679Z,92.00
2022-10-08T07:16:14.651Z,92.00
2022-10-08T07:18:45.438Z,92.10
2022-10-08T07:21:14.376Z,92.10
2022-10-08T07:23:41.462Z,92.00
2022-10-08T07:26:16.979Z,92.00
2022-10-08T07:28:49.713Z,92.10
2022-10-08T07:31:20.213Z,92.10
2022-10-08T07:33:47.224Z,92.10
2022-10-08T07:36:19.592Z,92.10
2022-10-08T07:38:47.956Z,92.10
2022-10-08T07:41:14.966Z,92.10
2022-10-08T07:43:42.891Z,92.20
2022-10-08T07:46:11.676Z,92.20
2022-10-08T07:48:39.696Z,92.20
2022-10-08T07:51:17.486Z,92.20
2022-10-08T07:53:44.883Z,92.30
2022-10-08T07:56:14.061Z,92.30
2022-10-08T07:58:41.338Z,92.30
2022-10-08T08:01:11.469Z,92.30
2022-10-08T08:03:38.240Z,92.30
2022-10-08T08:06:09.200Z,92.40
2022-10-08T08:08:37.644Z,92.40
2022-10-08T08:11:05.986Z,92.40
2022-10-08T08:13:37.356Z,92.50
2022-10-08T08:16:07.378Z,92.50
2022-10-08T08:18:37.412Z,92.50
2022-10-08T08:21:18.875Z,92.50
2022-10-08T08:23:47.962Z,92.50
2022-10-08T08:26:20.546Z,92.60
2022-10-08T08:28:52.906Z,92.60
2022-10-08T08:31:22.693Z,92.60
2022-10-08T08:33:51.672Z,92.70
2022-10-08T08:36:19.795Z,92.60
2022-10-08T08:38:46.964Z,92.60
2022-10-08T08:41:32.356Z,90.40
2022-10-08T08:44:01.061Z,68.10
2022-10-08T08:46:31.219Z,61.50
2022-10-08T08:49:05.164Z,65.80
2022-10-08T08:51:32.127Z,60.50
2022-10-08T08:53:59.889Z,64.60
2022-10-08T08:56:26.786Z,63.00
2022-10-08T08:58:59.409Z,66.50
2022-10-08T09:01:36.117Z,74.70
2022-10-08T09:04:46.669Z,67.00
2022-10-08T09:07:18.001Z,43.90
2022-10-08T09:09:48.554Z,31.80
2022-10-08T09:12:41.490Z,20.80
2022-10-08T09:15:17.104Z,26.40
2022-10-08T09:17:46.083Z,35.40
2022-10-08T09:20:18.153Z,29.60
2022-10-08T09:22:46.155Z,28.50
2022-10-08T09:25:14.839Z,27.30
2022-10-08T09:28:01.210Z,38.60
2022-10-08T09:30:44.944Z,38.50
2022-10-08T09:33:18.516Z,33.60
2022-10-08T09:35:48.398Z,29.30
2022-10-08T09:38:26.313Z,13.10
2022-10-08T09:41:17.490Z,10.90
2022-10-08T09:43:45.627Z,10.40
2022-10-08T09:46:30.214Z,6.60
2022-10-08T09:48:57.466Z,2.40
2022-10-08T09:51:24.507Z,1.60
2022-10-08T09:53:58.489Z,1.00
2022-10-08T09:56:28.187Z,1.30
2022-10-08T09:59:00.320Z,1.10
2022-10-08T10:01:27.575Z,1.00
2022-10-08T10:03:57.017Z,1.00
2022-10-08T10:06:34.275Z,1.00
2022-10-08T10:09:22.476Z,1.00
2022-10-08T10:12:03.527Z,1.00
2022-10-08T10:14:51.041Z,3.20
2022-10-08T10:17:29.685Z,4.40
2022-10-08T10:20:01.296Z,3.40
2022-10-08T10:22:50.911Z,3.00
2022-10-08T10:25:57.744Z,2.00
2022-10-08T10:28:45.974Z,1.00
2022-10-08T10:31:16.221Z,1.00
2022-10-08T10:33:51.872Z,1.00
2022-10-08T10:36:20.887Z,1.00
2022-10-08T10:38:56.067Z,1.00
2022-10-08T10:41:39.066Z,1.00
2022-10-08T10:44:05.721Z,1.00
2022-10-08T10:46:41.379Z,1.00
2022-10-08T10:49:18.018Z,1.00
2022-10-08T10:52:02.740Z,1.00
2022-10-08T10:54:44.413Z,1.00
2022-10-08T10:57:49.525Z,1.00
2022-10-08T11:00:23.739Z,1.00
2022-10-08T11:03:17.839Z,1.00
2022-10-08T11:05:47.011Z,1.00
2022-10-08T11:08:34.907Z,1.00
2022-10-08T11:11:33.334Z,1.00
2022-10-08T11:14:27.932Z,1.00
2022-10-08T11:17:09.719Z,1.00
2022-10-08T11:20:04.289Z,1.00
2022-10-08T11:22:45.166Z,1.00
2022-10-08T11:25:49.458Z,1.00
2022-10-08T11:28:39.861Z,1.00
2022-10-08T11:31:20.354Z,1.00
2022-10-08T11:33:48.539Z,1.00
2022-10-08T11:36:35.522Z,1.00
2022-10-08T11:39:17.493Z,1.00
2022-10-08T11:41:44.172Z,1.00
2022-10-08T11:44:12.170Z,1.00
2022-10-08T11:46:38.929Z,1.00
2022-10-08T11:49:11.728Z,1.00
2022-10-08T11:51:40.751Z,1.00
2022-10-08T11:54:12.370Z,1.00
2022-10-08T11:56:42.527Z,1.00
2022-10-08T11:59:25.301Z,1.00
2022-10-08T12:01:57.941Z,1.00
2022-10-08T12:04:32.120Z,1.00
2022-10-08T12:07:33.547Z,1.00
2022-10-08T12:10:03.362Z,1.00
2022-10-08T12:12:51.842Z,1.00
2022-10-08T12:15:24.395Z,1.00
2022-10-08T12:18:16.668Z,1.00
2022-10-08T12:20:43.965Z,1.00
2022-10-08T12:23:11.776Z,1.00
2022-10-08T12:25:49.074Z,1.00
2022-10-08T12:28:21.697Z,1.00
2022-10-08T12:30:55.810Z,1.00
2022-10-08T12:33:24.168Z,1.00
2022-10-08T12:36:26.813Z,1.00
2022-10-08T12:39:10.866Z,1.00
2022-10-08T12:41:52.337Z,1.00
2022-10-08T12:44:41.636Z,1.00
2022-10-08T12:47:38.743Z,1.00
2022-10-08T12:50:22.502Z,1.00
2022-10-08T12:52:49.316Z,1.00
2022-10-08T12:55:22.864Z,1.00
2022-10-08T12:57:51.113Z,1.00
2022-10-08T13:00:24.115Z,1.00
2022-10-08T13:03:15.001Z,1.00
2022-10-08T13:05:45.365Z,1.00
2022-10-08T13:08:32.434Z,1.00
2022-10-08T13:11:08.406Z,1.00
2022-10-08T13:13:38.187Z,1.00
2022-10-08T13:16:15.027Z,1.00
2022-10-08T13:18:44.673Z,1.00
2022-10-08T13:21:32.343Z,1.00
2022-10-08T13:24:00.932Z,1.00
2022-10-08T13:26:49.695Z,1.00
2022-10-08T13:29:22.361Z,1.00
2022-10-08T13:32:13.239Z,1.00
2022-10-08T13:34:40.212Z,1.00
2022-10-08T13:37:23.883Z,1.00
2022-10-08T13:39:52.093Z,1.00
2022-10-08T13:42:20.924Z,1.00
2022-10-08T13:44:48.035Z,1.00
2022-10-08T13:47:17.960Z,1.00
2022-10-08T13:49:45.191Z,1.00
2022-10-08T13:52:17.632Z,1.00
2022-10-08T13:54:44.618Z,1.00
2022-10-08T13:57:11.948Z,1.00
2022-10-08T13:59:39.196Z,1.00
2022-10-08T14:02:06.411Z,1.00
2022-10-08T14:04:33.310Z,1.00
2022-10-08T14:07:02.253Z,1.00
2022-10-08T14:09:30.346Z,1.00
2022-10-08T14:11:59.446Z,1.00
2022-10-08T14:14:27.518Z,1.00
2022-10-08T14:16:54.511Z,1.00
2022-10-08T14:19:21.410Z,1.00
2022-10-08T14:21:49.788Z,1.00
2022-10-08T14:24:16.518Z,1.00
2022-10-08T14:26:43.818Z,1.00
2022-10-08T14:29:10.513Z,1.00
2022-10-08T14:31:37.959Z,1.00
2022-10-08T14:34:05.253Z,1.00
2022-10-08T14:36:35.862Z,1.00
2022-10-08T14:39:04.506Z,1.00
2022-10-08T14:41:32.020Z,1.00
2022-10-08T14:43:58.932Z,1.00
2022-10-08T14:46:25.780Z,1.00
2022-10-08T14:48:52.689Z,1.00
2022-10-08T14:51:19.659Z,1.00
2022-10-08T14:53:46.436Z,1.00
2022-10-08T14:56:13.348Z,1.00
2022-10-08T14:58:40.364Z,1.00
2022-10-08T15:01:07.455Z,1.00
2022-10-08T15:03:34.894Z,1.00
2022-10-08T15:06:01.897Z,1.00
2022-10-08T15:08:28.998Z,1.00
2022-10-08T15:10:55.750Z,1.00
2022-10-08T15:13:22.522Z,1.00
2022-10-08T15:15:49.262Z,1.00
2022-10-08T15:18:16.103Z,1.00
2022-10-08T15:20:43.052Z,1.00
2022-10-08T15:23:10.497Z,1.00
2022-10-08T15:25:37.589Z,1.00
2022-10-08T15:28:04.909Z,1.00
2022-10-08T15:30:31.701Z,1.00
2022-10-08T15:33:04.024Z,1.00
2022-10-08T15:35:34.820Z,1.00
2022-10-08T15:38:01.719Z,1.00
2022-10-08T15:40:31.031Z,1.00
2022-10-08T15:42:58.061Z,1.00
2022-10-08T15:45:24.872Z,1.00
2022-10-08T15:47:51.552Z,1.00
2022-10-08T15:50:18.300Z,1.00
2022-10-08T15:52:46.558Z,1.00
2022-10-08T15:55:13.469Z,1.00
2022-10-08T15:57:40.218Z,1.00
2022-10-08T16:00:07.650Z,1.00
2022-10-08T16:02:34.731Z,1.00
2022-10-08T16:05:01.513Z,1.00
2022-10-08T16:07:28.219Z,1.00
2022-10-08T16:09:54.954Z,1.00
2022-10-08T16:12:21.741Z,1.00
2022-10-08T16:14:48.556Z,1.00
2022-10-08T16:17:15.348Z,1.00
2022-10-08T16:19:42.191Z,1.00
2022-10-08T16:22:08.982Z,1.00
2022-10-08T16:24:35.743Z,1.00
2022-10-08T16:27:02.469Z,1.00
2022-10-08T16:29:29.304Z,1.00
2022-10-08T16:31:56.100Z,1.00
2022-10-08T16:34:24.582Z,1.00
2022-10-08T16:36:51.443Z,1.00
2022-10-08T16:39:21.130Z,1.00
2022-10-08T16:41:48.888Z,1.00
2022-10-08T16:44:18.103Z,1.00
2022-10-08T16:46:53.163Z,1.00
2022-10-08T16:49:26.360Z,1.00
2022-10-08T16:51:55.863Z,1.00
2022-10-08T16:54:23.001Z,1.00
2022-10-08T16:56:49.928Z,1.00
2022-10-08T16:59:19.501Z,1.00
2022-10-08T17:01:49.824Z,1.00
2022-10-08T17:04:17.421Z,1.00
2022-10-08T17:06:44.151Z,1.00
2022-10-08T17:09:11.681Z,1.00
2022-10-08T17:11:38.987Z,1.00
2022-10-08T17:14:07.660Z,1.00
2022-10-08T17:16:35.592Z,1.00
2022-10-08T17:19:03.500Z,1.00
2022-10-08T17:21:31.468Z,1.00
2022-10-08T17:23:58.722Z,1.00
2022-10-08T17:26:27.698Z,1.00
2022-10-08T17:28:55.227Z,2.00
2022-10-08T17:31:24.403Z,3.60
2022-10-08T17:33:51.413Z,2.30
2022-10-08T17:36:20.869Z,2.20
2022-10-08T17:38:50.858Z,3.80
2022-10-08T17:41:26.396Z,3.50
2022-10-08T17:43:53.587Z,1.30
2022-10-08T17:46:26.086Z,2.00
2022-10-08T17:48:53.725Z,1.00
2022-10-08T17:51:23.195Z,1.00
2022-10-08T17:53:56.803Z,3.40
2022-10-08T17:56:24.466Z,6.40
2022-10-08T17:58:51.733Z,7.30
2022-10-08T18:01:30.491Z,9.90
2022-10-08T18:03:59.587Z,11.00
2022-10-08T18:06:28.053Z,13.10
2022-10-08T18:09:00.560Z,17.00
2022-10-08T18:11:29.310Z,20.90
2022-10-08T18:13:56.098Z,22.50
2022-10-08T18:16:25.361Z,22.90
2022-10-08T18:18:52.273Z,16.80
2022-10-08T18:21:20.034Z,12.50
2022-10-08T18:23:48.211Z,12.60
2022-10-08T18:26:33.906Z,12.20
2022-10-08T18:29:09.270Z,12.90
2022-10-08T18:31:37.715Z,16.10
2022-10-08T18:34:13.355Z,22.00
2022-10-08T18:36:40.147Z,23.10
2022-10-08T18:39:10.532Z,20.60
2022-10-08T18:41:41.288Z,20.40
2022-10-08T18:44:11.228Z,20.20
2022-10-08T18:46:38.647Z,19.80
2022-10-08T18:49:06.179Z,21.60
2022-10-08T18:51:33.645Z,22.40
2022-10-08T18:54:02.188Z,25.90
2022-10-08T18:56:31.860Z,23.10
2022-10-08T18:59:01.666Z,24.60
2022-10-08T19:01:31.941Z,28.30
2022-10-08T19:04:01.358Z,38.00
2022-10-08T19:06:30.621Z,32.60
2022-10-08T19:08:58.776Z,31.20
2022-10-08T19:11:34.147Z,31.50
2022-10-08T19:14:01.920Z,33.40
2022-10-08T19:16:29.241Z,36.50
2022-10-08T19:19:04.050Z,43.80
2022-10-08T19:21:35.810Z,48.70
2022-10-08T19:24:02.591Z,51.00
2022-10-08T19:26:30.565Z,48.90
2022-10-08T19:28:57.879Z,41.20
2022-10-08T19:31:27.619Z,38.40
2022-10-08T19:33:56.866Z,41.00
2022-10-08T19:36:24.692Z,45.80
2022-10-08T19:39:18.620Z,44.70
2022-10-08T19:41:45.981Z,49.20
2022-10-08T19:44:13.104Z,43.50
2022-10-08T19:46:39.955Z,43.70
2022-10-08T19:49:07.952Z,38.00
2022-10-08T19:51:35.152Z,37.30
2022-10-08T19:54:02.281Z,49.00
2022-10-08T19:56:30.260Z,50.90
2022-10-08T19:58:57.628Z,48.40
2022-10-08T20:01:27.757Z,40.80
2022-10-08T20:03:56.197Z,50.90
2022-10-08T20:06:25.145Z,49.00
2022-10-08T20:08:56.813Z,45.40
2022-10-08T20:11:23.811Z,54.60
2022-10-08T20:13:51.944Z,61.40
2022-10-08T20:16:28.597Z,62.00
2022-10-08T20:19:04.290Z,63.90
2022-10-08T20:21:34.233Z,62.90
2022-10-08T20:24:01.182Z,61.80
2022-10-08T20:26:32.383Z,60.00
2022-10-08T20:29:04.894Z,60.10
2022-10-08T20:31:37.346Z,61.20
2022-10-08T20:34:13.864Z,60.90
2022-10-08T20:36:41.147Z,49.50
2022-10-08T20:39:07.920Z,50.30
2022-10-08T20:41:35.361Z,50.50
2022-10-08T20:44:03.649Z,57.50
2022-10-08T20:46:32.243Z,62.50
2022-10-08T20:48:59.209Z,62.70
2022-10-08T20:51:28.004Z,60.10
2022-10-08T20:53:56.988Z,60.40
2022-10-08T20:56:24.401Z,62.20
2022-10-08T20:58:51.538Z,61.30
2022-10-08T21:01:24.670Z,61.00
2022-10-08T21:03:52.049Z,56.00
2022-10-08T21:06:21.027Z,60.70
2022-10-08T21:08:50.620Z,59.90
2022-10-08T21:11:19.854Z,61.30
2022-10-08T21:13:47.088Z,62.60
2022-10-08T21:16:17.686Z,61.70
2022-10-08T21:18:48.458Z,63.40
2022-10-08T21:21:16.131Z,64.10
2022-10-08T21:23:43.239Z,63.90
2022-10-08T21:26:12.082Z,65.90
2022-10-08T21:28:39.546Z,67.50
2022-10-08T21:31:07.351Z,66.10
2022-10-08T21:33:42.465Z,65.90
2022-10-08T21:36:15.584Z,62.80
2022-10-08T21:38:42.846Z,63.60
2022-10-08T21:41:12.625Z,65.10
2022-10-08T21:43:51.089Z,75.40
2022-10-08T21:46:21.033Z,77.70
2022-10-08T21:48:48.404Z,81.80
2022-10-08T21:51:17.594Z,72.80
2022-10-08T21:53:46.688Z,70.70
2022-10-08T21:56:16.735Z,77.60
2022-10-08T21:58:45.955Z,73.50
2022-10-08T22:01:36.850Z,72.90
2022-10-08T22:04:06.928Z,73.20
2022-10-08T22:06:37.198Z,74.30
2022-10-08T22:09:07.228Z,76.10
2022-10-08T22:11:34.530Z,77.70
2022-10-08T22:14:01.233Z,78.20
2022-10-08T22:16:29.741Z,77.00
2022-10-08T22:18:57.498Z,77.30
2022-10-08T22:21:25.131Z,79.60
2022-10-08T22:23:52.620Z,80.60
2022-10-08T22:26:22.726Z,81.00
2022-10-08T22:28:49.939Z,82.60
2022-10-08T22:31:19.068Z,85.40
2022-10-08T22:33:46.472Z,80.90
2022-10-08T22:36:19.204Z,79.30
2022-10-08T22:38:47.002Z,80.10
2022-10-08T22:41:16.257Z,83.30
2022-10-08T22:43:43.419Z,82.40
2022-10-08T22:46:13.332Z,84.10
2022-10-08T22:48:40.516Z,85.80
2022-10-08T22:51:10.795Z,84.80
2022-10-08T22:53:37.688Z,82.10
2022-10-08T22:56:06.440Z,83.20
2022-10-08T22:58:34.828Z,82.70
2022-10-08T23:01:07.337Z,82.10
2022-10-08T23:03:34.981Z,79.10
2022-10-08T23:06:02.764Z,83.20
2022-10-08T23:08:29.657Z,85.20
2022-10-08T23:10:59.866Z,84.80
2022-10-08T23:13:26.921Z,85.60
2022-10-08T23:16:05.334Z,84.00
2022-10-08T23:18:34.135Z,85.10
2022-10-08T23:21:02.641Z,85.10
2022-10-08T23:23:29.731Z,85.10
2022-10-08T23:26:01.584Z,85.30
2022-10-08T23:28:29.613Z,86.80
2022-10-08T23:31:04.490Z,86.60
2022-10-08T23:33:31.281Z,83.60
2022-10-08T23:35:58.064Z,83.50
2022-10-08T23:38:24.857Z,82.20
2022-10-08T23:40:51.588Z,82.10
2022-10-08T23:43:18.530Z,83.20
2022-10-08T23:45:45.245Z,83.20
2022-10-08T23:48:12.082Z,84.30
2022-10-08T23:50:39.190Z,85.70
2022-10-08T23:53:06.172Z,83.70
2022-10-08T23:55:32.946Z,82.80
2022-10-08T23:57:59.639Z,83.10
